地図

経路データ

SID SEASON NUMBER BASIN SUBBASIN NAME ISO_TIME NATURE LAT LON WMO_WIND WMO_PRES WMO_AGENCY TRACK_TYPE DIST2LAND LANDFALL IFLAG USA_AGENCY USA_ATCF_ID USA_LAT USA_LON USA_RECORD USA_STATUS USA_WIND USA_PRES USA_SSHS USA_R34_NE USA_R34_SE USA_R34_SW USA_R34_NW USA_R50_NE USA_R50_SE USA_R50_SW USA_R50_NW USA_R64_NE USA_R64_SE USA_R64_SW USA_R64_NW USA_POCI USA_ROCI USA_RMW USA_EYE TOKYO_LAT TOKYO_LON TOKYO_GRADE TOKYO_WIND TOKYO_PRES TOKYO_R50_DIR TOKYO_R50_LONG TOKYO_R50_SHORT TOKYO_R30_DIR TOKYO_R30_LONG TOKYO_R30_SHORT TOKYO_LAND CMA_LAT CMA_LON CMA_CAT CMA_WIND CMA_PRES HKO_LAT HKO_LON HKO_CAT HKO_WIND HKO_PRES NEWDELHI_LAT NEWDELHI_LON NEWDELHI_GRADE NEWDELHI_WIND NEWDELHI_PRES NEWDELHI_CI NEWDELHI_DP NEWDELHI_POCI REUNION_LAT REUNION_LON REUNION_TYPE REUNION_WIND REUNION_PRES REUNION_TNUM REUNION_CI REUNION_RMW REUNION_R34_NE REUNION_R34_SE REUNION_R34_SW REUNION_R34_NW REUNION_R50_NE REUNION_R50_SE REUNION_R50_SW REUNION_R50_NW REUNION_R64_NE REUNION_R64_SE REUNION_R64_SW REUNION_R64_NW BOM_LAT BOM_LON BOM_TYPE BOM_WIND BOM_PRES BOM_TNUM BOM_CI BOM_RMW BOM_R34_NE BOM_R34_SE BOM_R34_SW BOM_R34_NW BOM_R50_NE BOM_R50_SE BOM_R50_SW BOM_R50_NW BOM_R64_NE BOM_R64_SE BOM_R64_SW BOM_R64_NW BOM_ROCI BOM_POCI BOM_EYE BOM_POS_METHOD BOM_PRES_METHOD NADI_LAT NADI_LON NADI_CAT NADI_WIND NADI_PRES WELLINGTON_LAT WELLINGTON_LON WELLINGTON_WIND WELLINGTON_PRES DS824_LAT DS824_LON DS824_STAGE DS824_WIND DS824_PRES TD9636_LAT TD9636_LON TD9636_STAGE TD9636_WIND TD9636_PRES TD9635_LAT TD9635_LON TD9635_WIND TD9635_PRES TD9635_ROCI NEUMANN_LAT NEUMANN_LON NEUMANN_CLASS NEUMANN_WIND NEUMANN_PRES MLC_LAT MLC_LON MLC_CLASS MLC_WIND MLC_PRES USA_GUST BOM_GUST BOM_GUST_PER REUNION_GUST REUNION_GUST_PER USA_SEAHGT USA_SEARAD_NE USA_SEARAD_SE USA_SEARAD_SW USA_SEARAD_NW STORM_SPEED STORM_DIR
1951263N19267 1951 72 NA GM GEORGE 1951-09-19 18:00:00 TS 19.4000 -93.2000 30 hurdat_atl main 103 103 O_____________ hurdat_atl AL081951 19.4000 -93.2000 TD 30 -1 2 299
1951263N19267 1951 72 NA GM GEORGE 1951-09-19 21:00:00 TS 19.4475 -93.2950 main 109 109 P_____________ AL081951 19.4475 -93.2950 TD 35 0 2 298
1951263N19267 1951 72 NA GM GEORGE 1951-09-20 00:00:00 TS 19.5000 -93.4000 40 hurdat_atl main 124 124 O_____________ hurdat_atl AL081951 19.5000 -93.4000 TS 40 0 3 299
1951263N19267 1951 72 NA GM GEORGE 1951-09-20 03:00:00 TS 19.5700 -93.5276 main 139 139 P_____________ AL081951 19.5700 -93.5276 TS 40 0 3 305
1951263N19267 1951 72 NA GM GEORGE 1951-09-20 06:00:00 TS 19.7000 -93.7000 40 hurdat_atl main 156 156 O_____________ hurdat_atl AL081951 19.7000 -93.7000 TS 40 0 5 315
1951263N19267 1951 72 NA GM GEORGE 1951-09-20 09:00:00 TS 19.9198 -93.8977 main 178 178 P_____________ AL081951 19.9198 -93.8977 TS 42 0 7 317
1951263N19267 1951 72 NA GM GEORGE 1951-09-20 12:00:00 TS 20.2000 -94.2000 45 hurdat_atl main 197 189 O_____________ hurdat_atl AL081951 20.2000 -94.2000 TS 45 0 10 309
1951263N19267 1951 72 NA GM GEORGE 1951-09-20 15:00:00 TS 20.5228 -94.6920 main 189 160 P_____________ AL081951 20.5228 -94.6920 TS 47 0 11 303
1951263N19267 1951 72 NA GM GEORGE 1951-09-20 18:00:00 TS 20.8000 -95.2000 50 999 hurdat_atl main 160 144 O_____________ hurdat_atl AL081951 20.8000 -95.2000 TS 50 999 0 9 297
1951263N19267 1951 72 NA GM GEORGE 1951-09-20 21:00:00 TS 20.9297 -95.5304 main 144 129 P_____________ AL081951 20.9297 -95.5304 TS 50 0 6 290
1951263N19267 1951 72 NA GM GEORGE 1951-09-21 00:00:00 TS 21.0000 -95.8000 50 hurdat_atl main 129 114 O_____________ hurdat_atl AL081951 21.0000 -95.8000 TS 50 0 6 287
1951263N19267 1951 72 NA GM GEORGE 1951-09-21 03:00:00 TS 21.0924 -96.0926 main 114 98 P_____________ AL081951 21.0924 -96.0926 TS 50 0 6 290
1951263N19267 1951 72 NA GM GEORGE 1951-09-21 06:00:00 TS 21.2000 -96.4000 50 hurdat_atl main 98 70 O_____________ hurdat_atl AL081951 21.2000 -96.4000 TS 50 0 6 293
1951263N19267 1951 72 NA GM GEORGE 1951-09-21 09:00:00 TS 21.3434 -96.7203 main 70 23 P_____________ AL081951 21.3434 -96.7203 TS 50 0 7 295
1951263N19267 1951 72 NA GM GEORGE 1951-09-21 12:00:00 TS 21.5000 -97.1000 50 hurdat_atl main 23 0 O_____________ hurdat_atl AL081951 21.5000 -97.1000 TS 50 0 8 292
1951263N19267 1951 72 NA GM GEORGE 1951-09-21 14:00:00 TS 21.6000 -97.4000 50 hurdat_atl main 0 0 O_____________ hurdat_atl AL081951 21.6000 -97.4000 L TS 50 0 8 291
1951263N19267 1951 72 NA GM GEORGE 1951-09-21 15:00:00 TS 21.6464 -97.5166 main 10 0 P_____________ AL081951 21.6464 -97.5166 TS 46 0 6 298
1951263N19267 1951 72 NA NA GEORGE 1951-09-21 18:00:00 TS 21.8000 -97.8000 35 hurdat_atl main 0 0 O_____________ hurdat_atl AL081951 21.8000 -97.8000 TS 35 0 7 302
1951263N19267 1951 72 NA NA GEORGE 1951-09-21 21:00:00 TS 22.0262 -98.1634 main 0 0 P_____________ AL081951 22.0262 -98.1634 TS 30 -1 9 304
1951263N19267 1951 72 NA NA GEORGE 1951-09-22 00:00:00 TS 22.3000 -98.6000 25 hurdat_atl main 0 O_____________ hurdat_atl AL081951 22.3000 -98.6000 TD 25 -1 10 304

IBTrACS Databaseについて

本データベースは、米国NOAAが公開する1842年以降の世界の熱帯低気圧のベストトラックデータアーカイブInternational Best Track Archive for Climate Stewardship (IBTrACS)を、ウェブで閲覧しやすい形式に変換したものです。

最終更新日:2021-11-26